sensor_id;sensor_type;location;lat;lon;timestamp;P1;durP1;ratioP1;P2;durP2;ratioP2
64887;SDS011;51386;53.082;8.816;2023-07-20T00:00:14;1.37;;;1.20;;
64887;SDS011;51386;53.082;8.816;2023-07-20T00:02:42;2.23;;;1.13;;
64887;SDS011;51386;53.082;8.816;2023-07-20T00:05:09;2.63;;;1.50;;
64887;SDS011;51386;53.082;8.816;2023-07-20T00:07:36;1.83;;;1.30;;
64887;SDS011;51386;53.082;8.816;2023-07-20T00:10:05;1.10;;;1.10;;
64887;SDS011;51386;53.082;8.816;2023-07-20T00:12:33;1.93;;;1.43;;
64887;SDS011;51386;53.082;8.816;2023-07-20T00:15:00;1.20;;;1.10;;
64887;SDS011;51386;53.082;8.816;2023-07-20T00:17:27;1.23;;;1.13;;
64887;SDS011;51386;53.082;8.816;2023-07-20T00:19:55;2.27;;;1.30;;
64887;SDS011;51386;53.082;8.816;2023-07-20T00:22:22;1.30;;;1.20;;
64887;SDS011;51386;53.082;8.816;2023-07-20T00:24:49;1.33;;;1.23;;
64887;SDS011;51386;53.082;8.816;2023-07-20T00:27:17;1.50;;;1.40;;
64887;SDS011;51386;53.082;8.816;2023-07-20T00:29:44;1.43;;;1.33;;
64887;SDS011;51386;53.082;8.816;2023-07-20T00:32:11;1.90;;;1.40;;
64887;SDS011;51386;53.082;8.816;2023-07-20T00:34:38;1.53;;;1.20;;
64887;SDS011;51386;53.082;8.816;2023-07-20T00:37:05;1.10;;;1.00;;
64887;SDS011;51386;53.082;8.816;2023-07-20T00:39:32;2.57;;;1.20;;
64887;SDS011;51386;53.082;8.816;2023-07-20T00:41:59;1.13;;;1.10;;
64887;SDS011;51386;53.082;8.816;2023-07-20T00:44:28;1.60;;;1.00;;
64887;SDS011;51386;53.082;8.816;2023-07-20T00:46:55;1.80;;;1.00;;
64887;SDS011;51386;53.082;8.816;2023-07-20T00:49:22;2.17;;;1.37;;
64887;SDS011;51386;53.082;8.816;2023-07-20T00:51:50;2.97;;;2.47;;
64887;SDS011;51386;53.082;8.816;2023-07-20T00:54:17;2.80;;;2.60;;
64887;SDS011;51386;53.082;8.816;2023-07-20T00:56:45;3.93;;;3.40;;
64887;SDS011;51386;53.082;8.816;2023-07-20T00:59:12;8.77;;;3.43;;
64887;SDS011;51386;53.082;8.816;2023-07-20T01:01:41;7.90;;;4.63;;
64887;SDS011;51386;53.082;8.816;2023-07-20T01:04:08;7.63;;;6.07;;
64887;SDS011;51386;53.082;8.816;2023-07-20T01:06:36;7.70;;;4.63;;
64887;SDS011;51386;53.082;8.816;2023-07-20T01:09:23;4.87;;;3.57;;
64887;SDS011;51386;53.082;8.816;2023-07-20T01:12:02;2.73;;;2.20;;
64887;SDS011;51386;53.082;8.816;2023-07-20T01:14:36;2.67;;;1.90;;
64887;SDS011;51386;53.082;8.816;2023-07-20T01:17:05;1.60;;;1.50;;
64887;SDS011;51386;53.082;8.816;2023-07-20T01:19:32;4.00;;;1.87;;
64887;SDS011;51386;53.082;8.816;2023-07-20T01:22:01;1.50;;;1.40;;
64887;SDS011;51386;53.082;8.816;2023-07-20T01:24:45;1.30;;;1.20;;
64887;SDS011;51386;53.082;8.816;2023-07-20T01:27:57;0.90;;;0.90;;
64887;SDS011;51386;53.082;8.816;2023-07-20T01:30:59;2.50;;;1.10;;
64887;SDS011;51386;53.082;8.816;2023-07-20T01:33:44;1.37;;;1.27;;
64887;SDS011;51386;53.082;8.816;2023-07-20T01:36:14;1.47;;;1.37;;
64887;SDS011;51386;53.082;8.816;2023-07-20T01:38:44;1.10;;;1.00;;
64887;SDS011;51386;53.082;8.816;2023-07-20T01:41:13;1.20;;;1.10;;
64887;SDS011;51386;53.082;8.816;2023-07-20T01:43:42;1.60;;;1.50;;
64887;SDS011;51386;53.082;8.816;2023-07-20T01:46:09;1.53;;;1.43;;
64887;SDS011;51386;53.082;8.816;2023-07-20T01:48:38;1.50;;;1.40;;
64887;SDS011;51386;53.082;8.816;2023-07-20T01:51:05;1.37;;;1.27;;
64887;SDS011;51386;53.082;8.816;2023-07-20T01:53:32;1.30;;;1.20;;
64887;SDS011;51386;53.082;8.816;2023-07-20T01:55:59;1.70;;;1.07;;
64887;SDS011;51386;53.082;8.816;2023-07-20T01:58:26;1.47;;;1.37;;
64887;SDS011;51386;53.082;8.816;2023-07-20T02:00:53;1.30;;;1.20;;
64887;SDS011;51386;53.082;8.816;2023-07-20T02:03:20;1.13;;;1.03;;
64887;SDS011;51386;53.082;8.816;2023-07-20T02:05:49;1.37;;;1.10;;
64887;SDS011;51386;53.082;8.816;2023-07-20T02:08:16;2.13;;;1.13;;
64887;SDS011;51386;53.082;8.816;2023-07-20T02:10:45;1.10;;;1.00;;
64887;SDS011;51386;53.082;8.816;2023-07-20T02:13:12;1.97;;;1.87;;
64887;SDS011;51386;53.082;8.816;2023-07-20T02:15:39;2.23;;;1.20;;
64887;SDS011;51386;53.082;8.816;2023-07-20T02:18:08;2.10;;;1.90;;
64887;SDS011;51386;53.082;8.816;2023-07-20T02:20:35;2.50;;;2.30;;
64887;SDS011;51386;53.082;8.816;2023-07-20T02:23:04;1.93;;;1.43;;
64887;SDS011;51386;53.082;8.816;2023-07-20T02:25:31;1.30;;;1.20;;
64887;SDS011;51386;53.082;8.816;2023-07-20T02:27:58;2.10;;;1.20;;
64887;SDS011;51386;53.082;8.816;2023-07-20T02:30:25;1.27;;;0.90;;
64887;SDS011;51386;53.082;8.816;2023-07-20T02:32:53;1.93;;;0.90;;
64887;SDS011;51386;53.082;8.816;2023-07-20T02:35:20;0.80;;;0.80;;
64887;SDS011;51386;53.082;8.816;2023-07-20T02:37:47;0.93;;;0.80;;
64887;SDS011;51386;53.082;8.816;2023-07-20T02:40:15;1.50;;;0.77;;
64887;SDS011;51386;53.082;8.816;2023-07-20T02:42:42;0.90;;;0.80;;
64887;SDS011;51386;53.082;8.816;2023-07-20T02:45:10;0.80;;;0.80;;
64887;SDS011;51386;53.082;8.816;2023-07-20T02:47:37;1.00;;;0.90;;
64887;SDS011;51386;53.082;8.816;2023-07-20T02:50:05;0.87;;;0.80;;
64887;SDS011;51386;53.082;8.816;2023-07-20T02:52:34;0.70;;;0.70;;
64887;SDS011;51386;53.082;8.816;2023-07-20T02:55:01;0.97;;;0.80;;
64887;SDS011;51386;53.082;8.816;2023-07-20T02:57:30;1.33;;;0.90;;
64887;SDS011;51386;53.082;8.816;2023-07-20T02:59:57;1.27;;;1.17;;
64887;SDS011;51386;53.082;8.816;2023-07-20T03:02:24;1.87;;;1.30;;
64887;SDS011;51386;53.082;8.816;2023-07-20T03:04:51;1.20;;;1.10;;
64887;SDS011;51386;53.082;8.816;2023-07-20T03:07:18;2.70;;;1.07;;
64887;SDS011;51386;53.082;8.816;2023-07-20T03:09:46;1.40;;;1.30;;
64887;SDS011;51386;53.082;8.816;2023-07-20T03:12:14;0.83;;;0.83;;
64887;SDS011;51386;53.082;8.816;2023-07-20T03:14:42;2.30;;;1.20;;
64887;SDS011;51386;53.082;8.816;2023-07-20T03:17:09;2.60;;;1.17;;
64887;SDS011;51386;53.082;8.816;2023-07-20T03:19:36;1.63;;;1.40;;
64887;SDS011;51386;53.082;8.816;2023-07-20T03:22:03;1.30;;;1.20;;
64887;SDS011;51386;53.082;8.816;2023-07-20T03:24:31;1.43;;;1.33;;
64887;SDS011;51386;53.082;8.816;2023-07-20T03:26:58;1.43;;;1.33;;
64887;SDS011;51386;53.082;8.816;2023-07-20T03:29:26;1.60;;;1.50;;
64887;SDS011;51386;53.082;8.816;2023-07-20T03:31:54;1.73;;;1.47;;
64887;SDS011;51386;53.082;8.816;2023-07-20T03:34:21;2.53;;;1.70;;
64887;SDS011;51386;53.082;8.816;2023-07-20T03:36:48;1.83;;;1.30;;
64887;SDS011;51386;53.082;8.816;2023-07-20T03:39:15;2.67;;;1.83;;
64887;SDS011;51386;53.082;8.816;2023-07-20T03:41:42;1.90;;;1.80;;
64887;SDS011;51386;53.082;8.816;2023-07-20T03:44:09;2.27;;;2.10;;
64887;SDS011;51386;53.082;8.816;2023-07-20T03:46:36;2.10;;;1.93;;
64887;SDS011;51386;53.082;8.816;2023-07-20T03:49:05;1.87;;;1.73;;
64887;SDS011;51386;53.082;8.816;2023-07-20T03:51:32;2.30;;;1.80;;
64887;SDS011;51386;53.082;8.816;2023-07-20T03:53:59;1.70;;;1.60;;
64887;SDS011;51386;53.082;8.816;2023-07-20T03:56:26;1.93;;;1.73;;
64887;SDS011;51386;53.082;8.816;2023-07-20T03:58:53;1.80;;;1.70;;
64887;SDS011;51386;53.082;8.816;2023-07-20T04:01:20;1.80;;;1.70;;
64887;SDS011;51386;53.082;8.816;2023-07-20T04:03:47;1.63;;;1.53;;
64887;SDS011;51386;53.082;8.816;2023-07-20T04:06:17;1.70;;;1.60;;
64887;SDS011;51386;53.082;8.816;2023-07-20T04:08:44;2.97;;;1.60;;
64887;SDS011;51386;53.082;8.816;2023-07-20T04:11:13;2.17;;;1.60;;
64887;SDS011;51386;53.082;8.816;2023-07-20T04:13:40;2.30;;;2.10;;
64887;SDS011;51386;53.082;8.816;2023-07-20T04:16:07;1.83;;;1.73;;
64887;SDS011;51386;53.082;8.816;2023-07-20T04:18:34;1.97;;;1.80;;
64887;SDS011;51386;53.082;8.816;2023-07-20T04:21:01;3.40;;;1.93;;
64887;SDS011;51386;53.082;8.816;2023-07-20T04:23:29;3.67;;;2.00;;
64887;SDS011;51386;53.082;8.816;2023-07-20T04:25:56;1.90;;;1.70;;
64887;SDS011;51386;53.082;8.816;2023-07-20T04:28:23;2.07;;;1.83;;
64887;SDS011;51386;53.082;8.816;2023-07-20T04:30:50;3.23;;;1.90;;
64887;SDS011;51386;53.082;8.816;2023-07-20T04:33:19;3.00;;;2.30;;
64887;SDS011;51386;53.082;8.816;2023-07-20T04:35:50;2.53;;;2.00;;
64887;SDS011;51386;53.082;8.816;2023-07-20T04:38:18;2.27;;;2.00;;
64887;SDS011;51386;53.082;8.816;2023-07-20T04:40:47;3.67;;;2.50;;
64887;SDS011;51386;53.082;8.816;2023-07-20T04:43:16;3.87;;;1.90;;
64887;SDS011;51386;53.082;8.816;2023-07-20T04:45:44;2.63;;;1.80;;
64887;SDS011;51386;53.082;8.816;2023-07-20T04:48:12;3.90;;;2.50;;
64887;SDS011;51386;53.082;8.816;2023-07-20T04:50:42;2.60;;;2.10;;
64887;SDS011;51386;53.082;8.816;2023-07-20T04:53:12;2.03;;;1.90;;
64887;SDS011;51386;53.082;8.816;2023-07-20T04:55:39;3.37;;;2.37;;
64887;SDS011;51386;53.082;8.816;2023-07-20T04:58:14;3.93;;;2.43;;
64887;SDS011;51386;53.082;8.816;2023-07-20T05:00:41;5.23;;;2.57;;
64887;SDS011;51386;53.082;8.816;2023-07-20T05:03:09;4.47;;;2.67;;
64887;SDS011;51386;53.082;8.816;2023-07-20T05:05:36;2.83;;;2.60;;
64887;SDS011;51386;53.082;8.816;2023-07-20T05:08:03;2.17;;;2.07;;
64887;SDS011;51386;53.082;8.816;2023-07-20T05:10:30;2.63;;;2.20;;
64887;SDS011;51386;53.082;8.816;2023-07-20T05:12:58;2.60;;;1.87;;
64887;SDS011;51386;53.082;8.816;2023-07-20T05:15:27;3.67;;;2.50;;
64887;SDS011;51386;53.082;8.816;2023-07-20T05:17:54;2.23;;;2.03;;
64887;SDS011;51386;53.082;8.816;2023-07-20T05:20:21;2.70;;;2.23;;
64887;SDS011;51386;53.082;8.816;2023-07-20T05:22:48;2.97;;;1.70;;
64887;SDS011;51386;53.082;8.816;2023-07-20T05:25:15;2.40;;;2.03;;
64887;SDS011;51386;53.082;8.816;2023-07-20T05:27:44;2.53;;;1.90;;
64887;SDS011;51386;53.082;8.816;2023-07-20T05:30:12;2.50;;;2.30;;
64887;SDS011;51386;53.082;8.816;2023-07-20T05:32:41;1.80;;;1.70;;
64887;SDS011;51386;53.082;8.816;2023-07-20T05:35:08;2.70;;;2.50;;
64887;SDS011;51386;53.082;8.816;2023-07-20T05:37:37;3.90;;;2.43;;
64887;SDS011;51386;53.082;8.816;2023-07-20T05:40:05;2.00;;;1.80;;
64887;SDS011;51386;53.082;8.816;2023-07-20T05:42:34;3.87;;;3.07;;
64887;SDS011;51386;53.082;8.816;2023-07-20T05:45:01;2.60;;;2.03;;
64887;SDS011;51386;53.082;8.816;2023-07-20T05:47:28;2.40;;;2.20;;
64887;SDS011;51386;53.082;8.816;2023-07-20T05:49:56;4.20;;;2.03;;
64887;SDS011;51386;53.082;8.816;2023-07-20T05:52:23;2.37;;;2.00;;
64887;SDS011;51386;53.082;8.816;2023-07-20T05:54:51;2.70;;;1.97;;
64887;SDS011;51386;53.082;8.816;2023-07-20T05:57:18;3.50;;;1.70;;
64887;SDS011;51386;53.082;8.816;2023-07-20T05:59:44;3.30;;;1.60;;
64887;SDS011;51386;53.082;8.816;2023-07-20T06:02:11;3.87;;;1.80;;
64887;SDS011;51386;53.082;8.816;2023-07-20T06:04:39;3.70;;;2.37;;
64887;SDS011;51386;53.082;8.816;2023-07-20T06:07:07;3.57;;;2.03;;
64887;SDS011;51386;53.082;8.816;2023-07-20T06:09:35;4.53;;;2.10;;
64887;SDS011;51386;53.082;8.816;2023-07-20T06:12:03;2.80;;;2.03;;
64887;SDS011;51386;53.082;8.816;2023-07-20T06:14:31;2.20;;;2.00;;
64887;SDS011;51386;53.082;8.816;2023-07-20T06:16:58;2.87;;;2.10;;
64887;SDS011;51386;53.082;8.816;2023-07-20T06:19:25;2.37;;;1.77;;
64887;SDS011;51386;53.082;8.816;2023-07-20T06:21:52;2.20;;;2.00;;
64887;SDS011;51386;53.082;8.816;2023-07-20T06:24:21;3.37;;;1.60;;
64887;SDS011;51386;53.082;8.816;2023-07-20T06:26:48;2.50;;;1.97;;
64887;SDS011;51386;53.082;8.816;2023-07-20T06:29:15;1.97;;;1.73;;
64887;SDS011;51386;53.082;8.816;2023-07-20T06:31:42;3.63;;;2.10;;
64887;SDS011;51386;53.082;8.816;2023-07-20T06:34:09;2.70;;;1.93;;
64887;SDS011;51386;53.082;8.816;2023-07-20T06:36:36;2.03;;;1.60;;
64887;SDS011;51386;53.082;8.816;2023-07-20T06:39:03;3.40;;;2.10;;
64887;SDS011;51386;53.082;8.816;2023-07-20T06:41:34;2.40;;;1.30;;
64887;SDS011;51386;53.082;8.816;2023-07-20T06:44:04;4.47;;;2.07;;
64887;SDS011;51386;53.082;8.816;2023-07-20T06:46:31;2.30;;;1.77;;
64887;SDS011;51386;53.082;8.816;2023-07-20T06:48:58;5.23;;;1.87;;
64887;SDS011;51386;53.082;8.816;2023-07-20T06:51:28;7.87;;;5.67;;
64887;SDS011;51386;53.082;8.816;2023-07-20T06:53:55;3.33;;;2.23;;
64887;SDS011;51386;53.082;8.816;2023-07-20T06:56:23;4.30;;;1.83;;
64887;SDS011;51386;53.082;8.816;2023-07-20T06:58:53;4.70;;;2.50;;
64887;SDS011;51386;53.082;8.816;2023-07-20T07:01:20;1.80;;;1.33;;
64887;SDS011;51386;53.082;8.816;2023-07-20T07:03:49;3.60;;;1.70;;
64887;SDS011;51386;53.082;8.816;2023-07-20T07:06:20;2.10;;;1.27;;
64887;SDS011;51386;53.082;8.816;2023-07-20T07:08:49;3.73;;;1.70;;
64887;SDS011;51386;53.082;8.816;2023-07-20T07:11:16;3.07;;;1.80;;
64887;SDS011;51386;53.082;8.816;2023-07-20T07:13:44;4.30;;;1.83;;
64887;SDS011;51386;53.082;8.816;2023-07-20T07:16:14;2.50;;;1.37;;
64887;SDS011;51386;53.082;8.816;2023-07-20T07:18:46;2.23;;;1.57;;
64887;SDS011;51386;53.082;8.816;2023-07-20T07:21:13;5.87;;;1.60;;
64887;SDS011;51386;53.082;8.816;2023-07-20T07:23:41;3.23;;;1.90;;
64887;SDS011;51386;53.082;8.816;2023-07-20T07:26:08;2.13;;;1.40;;
64887;SDS011;51386;53.082;8.816;2023-07-20T07:28:35;2.37;;;1.17;;
64887;SDS011;51386;53.082;8.816;2023-07-20T07:31:04;2.40;;;1.50;;
64887;SDS011;51386;53.082;8.816;2023-07-20T07:33:35;4.10;;;1.93;;
64887;SDS011;51386;53.082;8.816;2023-07-20T07:36:03;4.07;;;1.57;;
64887;SDS011;51386;53.082;8.816;2023-07-20T07:38:30;4.30;;;1.87;;
64887;SDS011;51386;53.082;8.816;2023-07-20T07:41:17;4.83;;;2.50;;
64887;SDS011;51386;53.082;8.816;2023-07-20T07:43:44;4.70;;;1.50;;
64887;SDS011;51386;53.082;8.816;2023-07-20T07:46:11;2.03;;;1.47;;
64887;SDS011;51386;53.082;8.816;2023-07-20T07:48:41;2.33;;;1.50;;
64887;SDS011;51386;53.082;8.816;2023-07-20T07:51:09;3.53;;;1.77;;
64887;SDS011;51386;53.082;8.816;2023-07-20T07:53:35;5.13;;;1.50;;
64887;SDS011;51386;53.082;8.816;2023-07-20T07:56:06;3.37;;;1.67;;
64887;SDS011;51386;53.082;8.816;2023-07-20T07:58:33;1.80;;;1.50;;
64887;SDS011;51386;53.082;8.816;2023-07-20T08:01:01;3.43;;;1.27;;
64887;SDS011;51386;53.082;8.816;2023-07-20T08:03:28;2.87;;;1.63;;
64887;SDS011;51386;53.082;8.816;2023-07-20T08:05:56;4.17;;;2.10;;
64887;SDS011;51386;53.082;8.816;2023-07-20T08:08:28;3.30;;;2.07;;
64887;SDS011;51386;53.082;8.816;2023-07-20T08:11:04;1.77;;;1.63;;
64887;SDS011;51386;53.082;8.816;2023-07-20T08:13:37;2.10;;;1.60;;
64887;SDS011;51386;53.082;8.816;2023-07-20T08:16:05;3.10;;;1.93;;
64887;SDS011;51386;53.082;8.816;2023-07-20T08:18:38;3.67;;;2.90;;
64887;SDS011;51386;53.082;8.816;2023-07-20T08:21:10;4.40;;;2.00;;
64887;SDS011;51386;53.082;8.816;2023-07-20T08:23:37;4.00;;;1.40;;
64887;SDS011;51386;53.082;8.816;2023-07-20T08:26:04;1.73;;;1.37;;
64887;SDS011;51386;53.082;8.816;2023-07-20T08:28:31;2.87;;;1.43;;
64887;SDS011;51386;53.082;8.816;2023-07-20T08:30:58;3.47;;;1.70;;
64887;SDS011;51386;53.082;8.816;2023-07-20T08:33:26;1.83;;;1.67;;
64887;SDS011;51386;53.082;8.816;2023-07-20T08:36:06;3.53;;;2.20;;
64887;SDS011;51386;53.082;8.816;2023-07-20T08:38:39;5.03;;;1.97;;
64887;SDS011;51386;53.082;8.816;2023-07-20T08:41:06;6.17;;;2.60;;
64887;SDS011;51386;53.082;8.816;2023-07-20T08:43:33;2.73;;;2.43;;
64887;SDS011;51386;53.082;8.816;2023-07-20T08:46:03;2.40;;;2.00;;
64887;SDS011;51386;53.082;8.816;2023-07-20T08:48:31;1.83;;;1.70;;
64887;SDS011;51386;53.082;8.816;2023-07-20T08:50:59;2.17;;;1.67;;
64887;SDS011;51386;53.082;8.816;2023-07-20T08:53:31;4.60;;;4.20;;
64887;SDS011;51386;53.082;8.816;2023-07-20T08:56:01;2.05;;;1.85;;
64887;SDS011;51386;53.082;8.816;2023-07-20T08:58:30;5.28;;;1.88;;
64887;SDS011;51386;53.082;8.816;2023-07-20T09:01:00;4.10;;;1.92;;
64887;SDS011;51386;53.082;8.816;2023-07-20T09:03:28;4.80;;;2.17;;
64887;SDS011;51386;53.082;8.816;2023-07-20T09:05:55;1.88;;;1.70;;
64887;SDS011;51386;53.082;8.816;2023-07-20T09:08:22;3.05;;;1.70;;
64887;SDS011;51386;53.082;8.816;2023-07-20T09:10:50;6.28;;;2.30;;
64887;SDS011;51386;53.082;8.816;2023-07-20T09:13:18;1.88;;;1.77;;
64887;SDS011;51386;53.082;8.816;2023-07-20T09:15:47;4.10;;;2.88;;
64887;SDS011;51386;53.082;8.816;2023-07-20T09:18:26;2.75;;;1.92;;
64887;SDS011;51386;53.082;8.816;2023-07-20T09:20:57;5.28;;;2.03;;
64887;SDS011;51386;53.082;8.816;2023-07-20T09:23:29;4.38;;;2.00;;
64887;SDS011;51386;53.082;8.816;2023-07-20T09:25:58;2.90;;;1.85;;
64887;SDS011;51386;53.082;8.816;2023-07-20T09:28:27;2.13;;;1.50;;
64887;SDS011;51386;53.082;8.816;2023-07-20T09:30:54;1.70;;;1.52;;
64887;SDS011;51386;53.082;8.816;2023-07-20T09:33:23;1.88;;;1.77;;
64887;SDS011;51386;53.082;8.816;2023-07-20T09:35:54;1.92;;;1.70;;
64887;SDS011;51386;53.082;8.816;2023-07-20T09:38:48;1.52;;;1.42;;
64887;SDS011;51386;53.082;8.816;2023-07-20T09:41:19;2.83;;;1.83;;
64887;SDS011;51386;53.082;8.816;2023-07-20T09:43:51;1.65;;;1.45;;
64887;SDS011;51386;53.082;8.816;2023-07-20T09:46:20;1.98;;;1.77;;
64887;SDS011;51386;53.082;8.816;2023-07-20T09:48:51;1.63;;;1.50;;
64887;SDS011;51386;53.082;8.816;2023-07-20T09:51:23;5.47;;;1.90;;
64887;SDS011;51386;53.082;8.816;2023-07-20T09:53:51;1.67;;;1.50;;
64887;SDS011;51386;53.082;8.816;2023-07-20T09:56:21;2.58;;;1.60;;
64887;SDS011;51386;53.082;8.816;2023-07-20T09:58:51;2.47;;;2.28;;
64887;SDS011;51386;53.082;8.816;2023-07-20T10:01:20;2.55;;;1.58;;
64887;SDS011;51386;53.082;8.816;2023-07-20T10:03:51;2.00;;;1.70;;
64887;SDS011;51386;53.082;8.816;2023-07-20T10:06:24;1.38;;;1.27;;
64887;SDS011;51386;53.082;8.816;2023-07-20T10:08:56;2.03;;;1.88;;
64887;SDS011;51386;53.082;8.816;2023-07-20T10:11:30;2.15;;;1.95;;
64887;SDS011;51386;53.082;8.816;2023-07-20T10:14:04;4.78;;;2.40;;
64887;SDS011;51386;53.082;8.816;2023-07-20T10:16:35;3.15;;;2.00;;
64887;SDS011;51386;53.082;8.816;2023-07-20T10:19:06;3.43;;;3.13;;
64887;SDS011;51386;53.082;8.816;2023-07-20T10:21:46;6.87;;;4.93;;
64887;SDS011;51386;53.082;8.816;2023-07-20T10:24:22;3.73;;;2.23;;
64887;SDS011;51386;53.082;8.816;2023-07-20T10:26:50;4.00;;;2.53;;
64887;SDS011;51386;53.082;8.816;2023-07-20T10:29:20;2.73;;;1.83;;
64887;SDS011;51386;53.082;8.816;2023-07-20T10:31:48;2.37;;;1.80;;
64887;SDS011;51386;53.082;8.816;2023-07-20T10:34:18;3.70;;;1.77;;
64887;SDS011;51386;53.082;8.816;2023-07-20T10:36:46;1.93;;;1.50;;
64887;SDS011;51386;53.082;8.816;2023-07-20T10:39:22;1.23;;;1.13;;
64887;SDS011;51386;53.082;8.816;2023-07-20T10:41:53;1.83;;;1.40;;
64887;SDS011;51386;53.082;8.816;2023-07-20T10:44:29;1.50;;;1.40;;
64887;SDS011;51386;53.082;8.816;2023-07-20T10:46:59;4.20;;;1.30;;
64887;SDS011;51386;53.082;8.816;2023-07-20T10:49:29;1.67;;;1.50;;
64887;SDS011;51386;53.082;8.816;2023-07-20T10:52:00;2.53;;;1.70;;
64887;SDS011;51386;53.082;8.816;2023-07-20T10:54:48;1.50;;;1.40;;
64887;SDS011;51386;53.082;8.816;2023-07-20T10:57:22;1.40;;;1.30;;
64887;SDS011;51386;53.082;8.816;2023-07-20T11:00:07;1.13;;;1.07;;
64887;SDS011;51386;53.082;8.816;2023-07-20T11:02:48;2.27;;;1.47;;
64887;SDS011;51386;53.082;8.816;2023-07-20T11:05:33;2.77;;;1.80;;
64887;SDS011;51386;53.082;8.816;2023-07-20T11:08:06;2.23;;;1.80;;
64887;SDS011;51386;53.082;8.816;2023-07-20T11:10:37;2.13;;;1.77;;
64887;SDS011;51386;53.082;8.816;2023-07-20T11:13:17;2.73;;;1.53;;
64887;SDS011;51386;53.082;8.816;2023-07-20T11:16:03;3.47;;;1.60;;
64887;SDS011;51386;53.082;8.816;2023-07-20T11:18:33;2.87;;;1.60;;
64887;SDS011;51386;53.082;8.816;2023-07-20T11:21:07;1.53;;;1.23;;
64887;SDS011;51386;53.082;8.816;2023-07-20T11:23:37;2.43;;;1.37;;
64887;SDS011;51386;53.082;8.816;2023-07-20T11:26:05;4.33;;;1.40;;
64887;SDS011;51386;53.082;8.816;2023-07-20T11:28:33;3.90;;;1.90;;
64887;SDS011;51386;53.082;8.816;2023-07-20T11:31:00;4.17;;;3.27;;
64887;SDS011;51386;53.082;8.816;2023-07-20T11:33:29;4.23;;;2.10;;
64887;SDS011;51386;53.082;8.816;2023-07-20T11:35:56;2.63;;;1.67;;
64887;SDS011;51386;53.082;8.816;2023-07-20T11:38:23;3.90;;;1.83;;
64887;SDS011;51386;53.082;8.816;2023-07-20T11:40:51;2.63;;;1.67;;
64887;SDS011;51386;53.082;8.816;2023-07-20T11:43:18;2.30;;;1.70;;
64887;SDS011;51386;53.082;8.816;2023-07-20T11:45:47;3.03;;;1.67;;
64887;SDS011;51386;53.082;8.816;2023-07-20T11:48:15;2.60;;;1.70;;
64887;SDS011;51386;53.082;8.816;2023-07-20T11:50:44;2.30;;;1.73;;
64887;SDS011;51386;53.082;8.816;2023-07-20T11:53:11;3.33;;;2.03;;
64887;SDS011;51386;53.082;8.816;2023-07-20T11:55:40;3.03;;;2.00;;
64887;SDS011;51386;53.082;8.816;2023-07-20T11:58:09;2.53;;;1.63;;
64887;SDS011;51386;53.082;8.816;2023-07-20T12:00:37;1.97;;;1.67;;
64887;SDS011;51386;53.082;8.816;2023-07-20T12:03:06;2.77;;;1.53;;
64887;SDS011;51386;53.082;8.816;2023-07-20T12:05:34;4.00;;;2.60;;
64887;SDS011;51386;53.082;8.816;2023-07-20T12:08:22;3.10;;;1.65;;
64887;SDS011;51386;53.082;8.816;2023-07-20T12:10:49;4.70;;;1.40;;
64887;SDS011;51386;53.082;8.816;2023-07-20T12:13:16;4.07;;;1.80;;
64887;SDS011;51386;53.082;8.816;2023-07-20T12:15:44;4.10;;;2.20;;
64887;SDS011;51386;53.082;8.816;2023-07-20T12:18:11;3.47;;;1.50;;
64887;SDS011;51386;53.082;8.816;2023-07-20T12:20:38;2.63;;;1.70;;
64887;SDS011;51386;53.082;8.816;2023-07-20T12:23:08;3.20;;;1.30;;
64887;SDS011;51386;53.082;8.816;2023-07-20T12:25:38;2.50;;;1.63;;
64887;SDS011;51386;53.082;8.816;2023-07-20T12:28:08;3.83;;;1.63;;
64887;SDS011;51386;53.082;8.816;2023-07-20T12:30:37;2.07;;;1.37;;
64887;SDS011;51386;53.082;8.816;2023-07-20T12:33:04;3.90;;;1.63;;
64887;SDS011;51386;53.082;8.816;2023-07-20T12:35:32;3.77;;;1.70;;
64887;SDS011;51386;53.082;8.816;2023-07-20T12:37:59;3.63;;;1.30;;
64887;SDS011;51386;53.082;8.816;2023-07-20T12:40:27;5.07;;;3.27;;
64887;SDS011;51386;53.082;8.816;2023-07-20T12:42:56;3.03;;;1.60;;
64887;SDS011;51386;53.082;8.816;2023-07-20T12:45:24;4.23;;;2.70;;
64887;SDS011;51386;53.082;8.816;2023-07-20T12:47:51;3.43;;;1.77;;
64887;SDS011;51386;53.082;8.816;2023-07-20T12:50:18;2.80;;;1.80;;
64887;SDS011;51386;53.082;8.816;2023-07-20T12:52:45;2.43;;;1.50;;
64887;SDS011;51386;53.082;8.816;2023-07-20T12:55:12;2.37;;;1.60;;
64887;SDS011;51386;53.082;8.816;2023-07-20T12:57:40;3.23;;;1.40;;
64887;SDS011;51386;53.082;8.816;2023-07-20T13:00:10;2.43;;;1.43;;
64887;SDS011;51386;53.082;8.816;2023-07-20T13:02:38;2.53;;;1.33;;
64887;SDS011;51386;53.082;8.816;2023-07-20T13:05:05;1.67;;;1.10;;
64887;SDS011;51386;53.082;8.816;2023-07-20T13:07:33;2.23;;;1.20;;
64887;SDS011;51386;53.082;8.816;2023-07-20T13:10:06;2.97;;;1.37;;
64887;SDS011;51386;53.082;8.816;2023-07-20T13:12:35;5.03;;;1.37;;
64887;SDS011;51386;53.082;8.816;2023-07-20T13:15:03;1.80;;;1.40;;
64887;SDS011;51386;53.082;8.816;2023-07-20T13:17:35;2.57;;;1.43;;
64887;SDS011;51386;53.082;8.816;2023-07-20T13:20:05;2.57;;;1.40;;
64887;SDS011;51386;53.082;8.816;2023-07-20T13:22:36;1.83;;;1.50;;
64887;SDS011;51386;53.082;8.816;2023-07-20T13:25:04;1.50;;;1.00;;
64887;SDS011;51386;53.082;8.816;2023-07-20T13:27:32;2.03;;;1.77;;
64887;SDS011;51386;53.082;8.816;2023-07-20T13:30:00;2.83;;;1.40;;
64887;SDS011;51386;53.082;8.816;2023-07-20T13:32:29;3.53;;;1.50;;
64887;SDS011;51386;53.082;8.816;2023-07-20T13:35:01;2.10;;;1.50;;
64887;SDS011;51386;53.082;8.816;2023-07-20T13:37:28;1.83;;;1.50;;
64887;SDS011;51386;53.082;8.816;2023-07-20T13:39:55;1.83;;;1.47;;
64887;SDS011;51386;53.082;8.816;2023-07-20T13:42:23;2.43;;;1.50;;
64887;SDS011;51386;53.082;8.816;2023-07-20T13:44:50;2.30;;;0.93;;
64887;SDS011;51386;53.082;8.816;2023-07-20T13:47:17;3.23;;;1.10;;
64887;SDS011;51386;53.082;8.816;2023-07-20T13:49:47;5.13;;;1.17;;
64887;SDS011;51386;53.082;8.816;2023-07-20T13:52:16;2.43;;;1.40;;
64887;SDS011;51386;53.082;8.816;2023-07-20T13:54:47;1.77;;;1.10;;
64887;SDS011;51386;53.082;8.816;2023-07-20T13:57:19;2.40;;;1.33;;
64887;SDS011;51386;53.082;8.816;2023-07-20T13:59:47;1.83;;;1.30;;
64887;SDS011;51386;53.082;8.816;2023-07-20T14:02:14;3.63;;;1.50;;
64887;SDS011;51386;53.082;8.816;2023-07-20T14:04:44;3.10;;;1.70;;
64887;SDS011;51386;53.082;8.816;2023-07-20T14:07:12;1.70;;;1.20;;
64887;SDS011;51386;53.082;8.816;2023-07-20T14:09:43;1.57;;;1.40;;
64887;SDS011;51386;53.082;8.816;2023-07-20T14:12:13;3.40;;;2.27;;
64887;SDS011;51386;53.082;8.816;2023-07-20T14:14:43;2.50;;;2.10;;
64887;SDS011;51386;53.082;8.816;2023-07-20T14:17:11;4.93;;;3.33;;
64887;SDS011;51386;53.082;8.816;2023-07-20T14:19:39;2.50;;;1.60;;
64887;SDS011;51386;53.082;8.816;2023-07-20T14:22:08;2.80;;;2.40;;
64887;SDS011;51386;53.082;8.816;2023-07-20T14:24:38;4.43;;;1.67;;
64887;SDS011;51386;53.082;8.816;2023-07-20T14:27:06;2.37;;;1.33;;
64887;SDS011;51386;53.082;8.816;2023-07-20T14:29:33;2.03;;;1.70;;
64887;SDS011;51386;53.082;8.816;2023-07-20T14:32:02;2.93;;;1.40;;
64887;SDS011;51386;53.082;8.816;2023-07-20T14:34:32;1.43;;;1.30;;
64887;SDS011;51386;53.082;8.816;2023-07-20T14:37:03;4.40;;;1.70;;
64887;SDS011;51386;53.082;8.816;2023-07-20T14:39:30;4.47;;;1.67;;
64887;SDS011;51386;53.082;8.816;2023-07-20T14:41:58;3.83;;;1.70;;
64887;SDS011;51386;53.082;8.816;2023-07-20T14:44:26;2.10;;;1.50;;
64887;SDS011;51386;53.082;8.816;2023-07-20T14:46:53;2.03;;;1.53;;
64887;SDS011;51386;53.082;8.816;2023-07-20T14:49:39;2.60;;;1.33;;
64887;SDS011;51386;53.082;8.816;2023-07-20T14:52:06;1.57;;;1.40;;
64887;SDS011;51386;53.082;8.816;2023-07-20T14:54:37;3.00;;;1.70;;
64887;SDS011;51386;53.082;8.816;2023-07-20T14:57:04;1.63;;;1.50;;
64887;SDS011;51386;53.082;8.816;2023-07-20T14:59:42;2.70;;;1.50;;